Etusivu
METAR-TAF:

METAR-TAF

Lentoasemat :

Ateena, Kreikka

Ateenan kansainvälinen lentoasema

Leveyspiiri: 37-56N, Pituuspiiri: 023-56E, korkeus merenpinnasta: 94 m

Tämänhetkinen sää

Tämä raportti tehtiin 13 minuuttia sitten, kello 11.20 UTC
Tuuli 19 kn pohjoisesta/koillisesta
Lämpötila 23°C
Kosteus 33%
Ilmanpaine 1020 hPa
Näkyvyys 10 km tai enemmän
ei pilviä alle 1500 m:ssä eikä cumulonimbus-pilviä

METAR: LGAV 191120Z 02019KT CAVOK 23/06 Q1020 NOSIG

Aika: 14:33 (11:33 UTC)

Sääennuste

Tämä raportti tehtiin 6 tuntia ja 33 minuuttia sitten, kello 05.00 UTC
Ennuste voimassa 19. päivästä klo 06 UTC - 20. päivään klo 06 UTC
Tuuli 15 kn pohjoisesta
Näkyvyys 10 km tai enemmän
Muutamia pilviä 3000 ft:n korkeudessa
Ajoittain
19. päivästä klo 06 UTC - 19. päivään klo 16 UTC
Tuuli 18 kn pohjoisesta/koillisesta puuskistuen 28 kn:hen

TAF: LGAV 190500Z 1906/2006 01015KT 9999 FEW030 TEMPO 1906/1916 02018G28KT

Säähavainnot ja -ennusteet yli 4000 lentoasemalta (METAR- ja TAF-raportit).

Käytössä olevat sääasemat on merkitty karttaan keltaisilla ja punaisilla pisteillä.

Aseta hiiri pisteen päälle nähdäksesi sääaseman nimen.

Klikkaa sitten nähdäksesi säähavainnot ja -ennusteet.

Kartan vaihtaminen: klikkaa mustalla rastilla varustettuja vihreitä pisteitä, niin voit zoomata sisään; viivalla varustettua vihreää pistettä, niin voit zoomata ulos tai vihreitä nuolia, niin pääset viereisille kartoille.


METAR-TAF: